Terminal Aerodrome Forecast
Issued by NWS

Home | Current Version | Previous Version | Graphics & Text | Print | Product List | Glossary On
Versions: 1 2 3 4 5 6 7 8 9 10 11 12 13 14 15
000
FTUS45 KGGW 211311 AAA
TAFOLF
TAF AMD
KOLF 211311Z 2113/2212 26005KT 4SM BR SKC
      TEMPO 2113/2116 23004KT 4SM BKN001
     FM211900 26008KT P6SM FEW060
     FM220300 VRB04KT 5SM BR FEW030=

USA.gov is the U.S. government's official web portal to all federal, state and local government web resources and services.